sensor_id;sensor_type;location;lat;lon;timestamp;temperature;humidity
11242;DHT22;5678;52.370;9.006;2022-07-23T00:01:11;13.50;99.90
11242;DHT22;5678;52.370;9.006;2022-07-23T00:03:39;13.40;99.90
11242;DHT22;5678;52.370;9.006;2022-07-23T00:06:08;13.40;99.90
11242;DHT22;5678;52.370;9.006;2022-07-23T00:08:36;13.30;99.90
11242;DHT22;5678;52.370;9.006;2022-07-23T00:11:04;13.30;99.90
11242;DHT22;5678;52.370;9.006;2022-07-23T00:13:32;13.30;99.90
11242;DHT22;5678;52.370;9.006;2022-07-23T00:16:00;13.20;99.90
11242;DHT22;5678;52.370;9.006;2022-07-23T00:18:28;13.10;99.90
11242;DHT22;5678;52.370;9.006;2022-07-23T00:20:56;13.20;99.90
11242;DHT22;5678;52.370;9.006;2022-07-23T00:23:26;13.20;99.90
11242;DHT22;5678;52.370;9.006;2022-07-23T00:25:54;13.10;99.90
11242;DHT22;5678;52.370;9.006;2022-07-23T00:28:22;13.10;99.90
11242;DHT22;5678;52.370;9.006;2022-07-23T00:30:50;13.10;99.90
11242;DHT22;5678;52.370;9.006;2022-07-23T00:33:18;13.30;99.90
11242;DHT22;5678;52.370;9.006;2022-07-23T00:35:46;13.10;99.90
11242;DHT22;5678;52.370;9.006;2022-07-23T00:38:14;13.00;99.90
11242;DHT22;5678;52.370;9.006;2022-07-23T00:40:43;13.20;99.90
11242;DHT22;5678;52.370;9.006;2022-07-23T00:43:11;13.00;99.90
11242;DHT22;5678;52.370;9.006;2022-07-23T00:45:39;12.90;99.90
11242;DHT22;5678;52.370;9.006;2022-07-23T00:48:07;13.00;99.90
11242;DHT22;5678;52.370;9.006;2022-07-23T00:50:35;13.00;99.90
11242;DHT22;5678;52.370;9.006;2022-07-23T00:53:04;13.00;99.90
11242;DHT22;5678;52.370;9.006;2022-07-23T00:55:32;13.00;99.90
11242;DHT22;5678;52.370;9.006;2022-07-23T00:58:02;13.00;99.90
11242;DHT22;5678;52.370;9.006;2022-07-23T01:00:30;13.00;99.90
11242;DHT22;5678;52.370;9.006;2022-07-23T01:02:58;13.10;99.90
11242;DHT22;5678;52.370;9.006;2022-07-23T01:05:26;13.20;99.90
11242;DHT22;5678;52.370;9.006;2022-07-23T01:07:54;13.20;99.90
11242;DHT22;5678;52.370;9.006;2022-07-23T01:10:23;13.30;99.90
11242;DHT22;5678;52.370;9.006;2022-07-23T01:13:03;13.30;99.90
11242;DHT22;5678;52.370;9.006;2022-07-23T01:15:33;13.40;99.90
11242;DHT22;5678;52.370;9.006;2022-07-23T01:18:02;13.40;99.90
11242;DHT22;5678;52.370;9.006;2022-07-23T01:20:30;13.40;99.90
11242;DHT22;5678;52.370;9.006;2022-07-23T01:23:00;13.40;99.90
11242;DHT22;5678;52.370;9.006;2022-07-23T01:25:28;13.50;99.90
11242;DHT22;5678;52.370;9.006;2022-07-23T01:27:56;13.50;99.90
11242;DHT22;5678;52.370;9.006;2022-07-23T01:30:24;13.50;99.90
11242;DHT22;5678;52.370;9.006;2022-07-23T01:32:52;13.70;99.90
11242;DHT22;5678;52.370;9.006;2022-07-23T01:35:20;13.50;99.90
11242;DHT22;5678;52.370;9.006;2022-07-23T01:37:47;13.60;99.90
11242;DHT22;5678;52.370;9.006;2022-07-23T01:40:17;13.60;99.90
11242;DHT22;5678;52.370;9.006;2022-07-23T01:42:47;13.60;99.90
11242;DHT22;5678;52.370;9.006;2022-07-23T01:45:15;13.70;99.90
11242;DHT22;5678;52.370;9.006;2022-07-23T01:47:43;13.60;99.90
11242;DHT22;5678;52.370;9.006;2022-07-23T01:50:11;13.70;99.90
11242;DHT22;5678;52.370;9.006;2022-07-23T01:52:39;13.70;99.90
11242;DHT22;5678;52.370;9.006;2022-07-23T01:55:07;13.80;99.90
11242;DHT22;5678;52.370;9.006;2022-07-23T01:57:45;13.70;99.90
11242;DHT22;5678;52.370;9.006;2022-07-23T02:00:14;13.70;99.90
11242;DHT22;5678;52.370;9.006;2022-07-23T02:02:42;13.70;99.90
11242;DHT22;5678;52.370;9.006;2022-07-23T02:05:10;13.70;99.90
11242;DHT22;5678;52.370;9.006;2022-07-23T02:07:37;13.70;99.90
11242;DHT22;5678;52.370;9.006;2022-07-23T02:10:06;13.80;99.90
11242;DHT22;5678;52.370;9.006;2022-07-23T02:12:34;13.80;99.90
11242;DHT22;5678;52.370;9.006;2022-07-23T02:15:05;13.80;99.90
11242;DHT22;5678;52.370;9.006;2022-07-23T02:17:36;13.80;99.90
11242;DHT22;5678;52.370;9.006;2022-07-23T02:20:05;13.80;99.90
11242;DHT22;5678;52.370;9.006;2022-07-23T02:22:33;13.80;99.90
11242;DHT22;5678;52.370;9.006;2022-07-23T02:25:01;13.90;99.90
11242;DHT22;5678;52.370;9.006;2022-07-23T02:27:29;13.90;99.90
11242;DHT22;5678;52.370;9.006;2022-07-23T02:29:57;13.90;99.90
11242;DHT22;5678;52.370;9.006;2022-07-23T02:32:26;14.00;99.90
11242;DHT22;5678;52.370;9.006;2022-07-23T02:34:54;14.00;99.90
11242;DHT22;5678;52.370;9.006;2022-07-23T02:37:22;14.00;99.90
11242;DHT22;5678;52.370;9.006;2022-07-23T02:39:50;14.00;99.90
11242;DHT22;5678;52.370;9.006;2022-07-23T02:42:18;14.00;99.90
11242;DHT22;5678;52.370;9.006;2022-07-23T02:44:46;14.10;99.90
11242;DHT22;5678;52.370;9.006;2022-07-23T02:47:14;14.10;99.90
11242;DHT22;5678;52.370;9.006;2022-07-23T02:49:43;14.10;99.90
11242;DHT22;5678;52.370;9.006;2022-07-23T02:52:11;14.10;99.90
11242;DHT22;5678;52.370;9.006;2022-07-23T02:54:39;14.00;99.90
11242;DHT22;5678;52.370;9.006;2022-07-23T02:57:07;14.00;99.90
11242;DHT22;5678;52.370;9.006;2022-07-23T02:59:35;14.00;99.90
11242;DHT22;5678;52.370;9.006;2022-07-23T03:02:03;14.00;99.90
11242;DHT22;5678;52.370;9.006;2022-07-23T03:04:31;14.00;99.90
11242;DHT22;5678;52.370;9.006;2022-07-23T03:07:01;14.00;99.90
11242;DHT22;5678;52.370;9.006;2022-07-23T03:09:29;14.00;99.90
11242;DHT22;5678;52.370;9.006;2022-07-23T03:11:57;14.00;99.90
11242;DHT22;5678;52.370;9.006;2022-07-23T03:14:25;14.20;99.90
11242;DHT22;5678;52.370;9.006;2022-07-23T03:16:54;14.00;99.90
11242;DHT22;5678;52.370;9.006;2022-07-23T03:19:22;14.50;99.90
11242;DHT22;5678;52.370;9.006;2022-07-23T03:21:51;14.00;99.90
11242;DHT22;5678;52.370;9.006;2022-07-23T03:24:20;13.90;99.90
11242;DHT22;5678;52.370;9.006;2022-07-23T03:26:50;13.90;99.90
11242;DHT22;5678;52.370;9.006;2022-07-23T03:29:18;14.30;99.90
11242;DHT22;5678;52.370;9.006;2022-07-23T03:31:46;14.70;99.90
11242;DHT22;5678;52.370;9.006;2022-07-23T03:34:14;13.80;99.90
11242;DHT22;5678;52.370;9.006;2022-07-23T03:36:41;14.10;99.90
11242;DHT22;5678;52.370;9.006;2022-07-23T03:39:09;13.80;99.90
11242;DHT22;5678;52.370;9.006;2022-07-23T03:41:41;13.80;99.90
11242;DHT22;5678;52.370;9.006;2022-07-23T03:44:09;13.80;99.90
11242;DHT22;5678;52.370;9.006;2022-07-23T03:46:37;13.80;99.90
11242;DHT22;5678;52.370;9.006;2022-07-23T03:49:05;13.80;99.90
11242;DHT22;5678;52.370;9.006;2022-07-23T03:51:34;13.90;99.90
11242;DHT22;5678;52.370;9.006;2022-07-23T03:54:02;13.80;99.90
11242;DHT22;5678;52.370;9.006;2022-07-23T03:56:29;13.80;99.90
11242;DHT22;5678;52.370;9.006;2022-07-23T03:58:59;13.80;99.90
11242;DHT22;5678;52.370;9.006;2022-07-23T04:01:27;13.80;99.90
11242;DHT22;5678;52.370;9.006;2022-07-23T04:03:55;13.90;99.90
11242;DHT22;5678;52.370;9.006;2022-07-23T04:06:23;13.90;99.90
11242;DHT22;5678;52.370;9.006;2022-07-23T04:08:51;13.90;99.90
11242;DHT22;5678;52.370;9.006;2022-07-23T04:11:19;13.90;99.90
11242;DHT22;5678;52.370;9.006;2022-07-23T04:13:47;14.00;99.90
11242;DHT22;5678;52.370;9.006;2022-07-23T04:16:17;14.00;99.90
11242;DHT22;5678;52.370;9.006;2022-07-23T04:18:45;13.90;99.90
11242;DHT22;5678;52.370;9.006;2022-07-23T04:21:12;13.90;99.90
11242;DHT22;5678;52.370;9.006;2022-07-23T04:23:40;13.90;99.90
11242;DHT22;5678;52.370;9.006;2022-07-23T04:26:10;14.00;99.90
11242;DHT22;5678;52.370;9.006;2022-07-23T04:28:43;14.00;99.90
11242;DHT22;5678;52.370;9.006;2022-07-23T04:31:11;13.90;99.90
11242;DHT22;5678;52.370;9.006;2022-07-23T04:33:41;14.00;99.90
11242;DHT22;5678;52.370;9.006;2022-07-23T04:36:09;14.00;99.90
11242;DHT22;5678;52.370;9.006;2022-07-23T04:38:36;14.00;99.90
11242;DHT22;5678;52.370;9.006;2022-07-23T04:41:04;14.00;99.90
11242;DHT22;5678;52.370;9.006;2022-07-23T04:43:33;14.10;99.90
11242;DHT22;5678;52.370;9.006;2022-07-23T04:46:01;14.10;99.90
11242;DHT22;5678;52.370;9.006;2022-07-23T04:48:29;14.10;99.90
11242;DHT22;5678;52.370;9.006;2022-07-23T04:50:59;14.20;99.90
11242;DHT22;5678;52.370;9.006;2022-07-23T04:53:27;14.20;99.90
11242;DHT22;5678;52.370;9.006;2022-07-23T04:55:55;14.30;99.90
11242;DHT22;5678;52.370;9.006;2022-07-23T04:58:23;14.30;99.90
11242;DHT22;5678;52.370;9.006;2022-07-23T05:00:51;15.20;99.90
11242;DHT22;5678;52.370;9.006;2022-07-23T05:03:19;14.50;99.90
11242;DHT22;5678;52.370;9.006;2022-07-23T05:05:47;14.60;99.90
11242;DHT22;5678;52.370;9.006;2022-07-23T05:08:17;14.70;99.90
11242;DHT22;5678;52.370;9.006;2022-07-23T05:10:45;14.90;99.90
11242;DHT22;5678;52.370;9.006;2022-07-23T05:13:14;15.10;99.90
11242;DHT22;5678;52.370;9.006;2022-07-23T05:15:42;15.40;99.90
11242;DHT22;5678;52.370;9.006;2022-07-23T05:18:11;15.60;99.90
11242;DHT22;5678;52.370;9.006;2022-07-23T05:20:39;15.80;99.90
11242;DHT22;5678;52.370;9.006;2022-07-23T05:23:07;16.00;99.90
11242;DHT22;5678;52.370;9.006;2022-07-23T05:25:36;16.30;99.90
11242;DHT22;5678;52.370;9.006;2022-07-23T05:28:04;16.60;99.90
11242;DHT22;5678;52.370;9.006;2022-07-23T05:30:32;17.00;99.90
11242;DHT22;5678;52.370;9.006;2022-07-23T05:33:00;17.40;99.90
11242;DHT22;5678;52.370;9.006;2022-07-23T05:35:28;17.80;99.90
11242;DHT22;5678;52.370;9.006;2022-07-23T05:37:56;18.20;99.90
11242;DHT22;5678;52.370;9.006;2022-07-23T05:40:24;18.60;99.90
11242;DHT22;5678;52.370;9.006;2022-07-23T05:42:53;18.90;99.90
11242;DHT22;5678;52.370;9.006;2022-07-23T05:45:21;19.30;99.90
11242;DHT22;5678;52.370;9.006;2022-07-23T05:47:50;19.60;99.90
11242;DHT22;5678;52.370;9.006;2022-07-23T05:50:17;20.00;99.90
11242;DHT22;5678;52.370;9.006;2022-07-23T05:52:46;20.30;99.90
11242;DHT22;5678;52.370;9.006;2022-07-23T05:55:14;20.50;99.90
11242;DHT22;5678;52.370;9.006;2022-07-23T05:57:42;20.60;99.90
11242;DHT22;5678;52.370;9.006;2022-07-23T06:00:12;20.80;99.90
11242;DHT22;5678;52.370;9.006;2022-07-23T06:02:40;20.80;99.90
11242;DHT22;5678;52.370;9.006;2022-07-23T06:05:08;21.00;99.90
11242;DHT22;5678;52.370;9.006;2022-07-23T06:07:36;21.30;99.90
11242;DHT22;5678;52.370;9.006;2022-07-23T06:10:05;21.50;99.90
11242;DHT22;5678;52.370;9.006;2022-07-23T06:12:33;21.60;99.90
11242;DHT22;5678;52.370;9.006;2022-07-23T06:15:01;21.80;99.90
11242;DHT22;5678;52.370;9.006;2022-07-23T06:17:31;21.90;99.90
11242;DHT22;5678;52.370;9.006;2022-07-23T06:19:59;22.20;99.90
11242;DHT22;5678;52.370;9.006;2022-07-23T06:22:27;22.40;99.90
11242;DHT22;5678;52.370;9.006;2022-07-23T06:24:55;22.30;99.90
11242;DHT22;5678;52.370;9.006;2022-07-23T06:27:23;22.30;99.90
11242;DHT22;5678;52.370;9.006;2022-07-23T06:29:52;22.30;99.90
11242;DHT22;5678;52.370;9.006;2022-07-23T06:32:20;22.40;99.90
11242;DHT22;5678;52.370;9.006;2022-07-23T06:34:49;22.60;99.90
11242;DHT22;5678;52.370;9.006;2022-07-23T06:37:17;22.50;99.90
11242;DHT22;5678;52.370;9.006;2022-07-23T06:39:46;22.10;99.90
11242;DHT22;5678;52.370;9.006;2022-07-23T06:42:14;22.00;99.90
11242;DHT22;5678;52.370;9.006;2022-07-23T06:44:42;22.00;99.90
11242;DHT22;5678;52.370;9.006;2022-07-23T06:47:10;22.00;99.90
11242;DHT22;5678;52.370;9.006;2022-07-23T06:49:38;22.00;99.90
11242;DHT22;5678;52.370;9.006;2022-07-23T06:52:09;21.90;99.90
11242;DHT22;5678;52.370;9.006;2022-07-23T06:54:37;21.70;99.90
11242;DHT22;5678;52.370;9.006;2022-07-23T06:57:05;21.50;99.90
11242;DHT22;5678;52.370;9.006;2022-07-23T06:59:33;21.50;99.90
11242;DHT22;5678;52.370;9.006;2022-07-23T07:02:02;21.30;99.90
11242;DHT22;5678;52.370;9.006;2022-07-23T07:04:30;21.20;99.90
11242;DHT22;5678;52.370;9.006;2022-07-23T07:06:59;21.10;99.90
11242;DHT22;5678;52.370;9.006;2022-07-23T07:09:28;20.90;99.90
11242;DHT22;5678;52.370;9.006;2022-07-23T07:11:56;20.60;99.90
11242;DHT22;5678;52.370;9.006;2022-07-23T07:14:24;20.50;99.90
11242;DHT22;5678;52.370;9.006;2022-07-23T07:16:52;20.20;99.90
11242;DHT22;5678;52.370;9.006;2022-07-23T07:19:20;20.20;99.90
11242;DHT22;5678;52.370;9.006;2022-07-23T07:21:48;20.20;99.90
11242;DHT22;5678;52.370;9.006;2022-07-23T07:24:16;20.20;99.90
11242;DHT22;5678;52.370;9.006;2022-07-23T07:26:45;20.10;99.90
11242;DHT22;5678;52.370;9.006;2022-07-23T07:29:13;20.30;99.90
11242;DHT22;5678;52.370;9.006;2022-07-23T07:31:41;20.50;99.90
11242;DHT22;5678;52.370;9.006;2022-07-23T07:34:09;20.90;99.90
11242;DHT22;5678;52.370;9.006;2022-07-23T07:36:37;20.90;99.90
11242;DHT22;5678;52.370;9.006;2022-07-23T07:39:05;21.00;99.90
11242;DHT22;5678;52.370;9.006;2022-07-23T07:41:33;20.80;99.90
11242;DHT22;5678;52.370;9.006;2022-07-23T07:44:02;20.60;99.90
11242;DHT22;5678;52.370;9.006;2022-07-23T07:46:31;20.80;99.90
11242;DHT22;5678;52.370;9.006;2022-07-23T07:48:59;21.20;99.90
11242;DHT22;5678;52.370;9.006;2022-07-23T07:51:27;21.80;99.90
11242;DHT22;5678;52.370;9.006;2022-07-23T07:53:56;21.80;99.90
11242;DHT22;5678;52.370;9.006;2022-07-23T07:56:24;22.10;99.90
11242;DHT22;5678;52.370;9.006;2022-07-23T07:58:52;22.60;99.90
11242;DHT22;5678;52.370;9.006;2022-07-23T08:01:21;22.80;99.90
11242;DHT22;5678;52.370;9.006;2022-07-23T08:03:51;23.10;99.90
11242;DHT22;5678;52.370;9.006;2022-07-23T08:06:19;23.10;99.90
11242;DHT22;5678;52.370;9.006;2022-07-23T08:08:47;22.90;99.90
11242;DHT22;5678;52.370;9.006;2022-07-23T08:11:15;22.60;99.90
11242;DHT22;5678;52.370;9.006;2022-07-23T08:13:43;22.60;99.90
11242;DHT22;5678;52.370;9.006;2022-07-23T08:16:11;23.00;99.90
11242;DHT22;5678;52.370;9.006;2022-07-23T08:18:41;23.40;99.90
11242;DHT22;5678;52.370;9.006;2022-07-23T08:21:09;23.40;99.90
11242;DHT22;5678;52.370;9.006;2022-07-23T08:23:37;23.00;99.90
11242;DHT22;5678;52.370;9.006;2022-07-23T08:26:05;22.50;99.90
11242;DHT22;5678;52.370;9.006;2022-07-23T08:28:33;22.20;99.90
11242;DHT22;5678;52.370;9.006;2022-07-23T08:31:01;22.30;99.90
11242;DHT22;5678;52.370;9.006;2022-07-23T08:33:29;22.90;99.90
11242;DHT22;5678;52.370;9.006;2022-07-23T08:36:02;23.10;99.90
11242;DHT22;5678;52.370;9.006;2022-07-23T08:38:32;22.90;99.90
11242;DHT22;5678;52.370;9.006;2022-07-23T08:41:00;22.60;99.90
11242;DHT22;5678;52.370;9.006;2022-07-23T08:43:30;22.20;99.90
11242;DHT22;5678;52.370;9.006;2022-07-23T08:46:00;22.10;99.90
11242;DHT22;5678;52.370;9.006;2022-07-23T08:48:30;22.10;99.90
11242;DHT22;5678;52.370;9.006;2022-07-23T08:51:00;22.00;99.90
11242;DHT22;5678;52.370;9.006;2022-07-23T08:53:30;21.90;99.90
11242;DHT22;5678;52.370;9.006;2022-07-23T08:56:00;22.50;99.90
11242;DHT22;5678;52.370;9.006;2022-07-23T08:58:29;23.00;99.90
11242;DHT22;5678;52.370;9.006;2022-07-23T09:00:58;23.00;99.90
11242;DHT22;5678;52.370;9.006;2022-07-23T09:03:28;23.00;99.90
11242;DHT22;5678;52.370;9.006;2022-07-23T09:05:57;23.30;99.90
11242;DHT22;5678;52.370;9.006;2022-07-23T09:08:34;23.90;99.90
11242;DHT22;5678;52.370;9.006;2022-07-23T09:11:05;24.50;1.00
11242;DHT22;5678;52.370;9.006;2022-07-23T09:13:37;25.00;1.00
11242;DHT22;5678;52.370;9.006;2022-07-23T09:16:07;25.20;99.90
11242;DHT22;5678;52.370;9.006;2022-07-23T09:18:40;25.00;99.90
11242;DHT22;5678;52.370;9.006;2022-07-23T09:21:16;24.70;99.90
11242;DHT22;5678;52.370;9.006;2022-07-23T09:23:48;24.50;99.90
11242;DHT22;5678;52.370;9.006;2022-07-23T09:26:25;24.80;99.90
11242;DHT22;5678;52.370;9.006;2022-07-23T09:28:59;25.20;99.90
11242;DHT22;5678;52.370;9.006;2022-07-23T09:31:31;25.40;99.90
11242;DHT22;5678;52.370;9.006;2022-07-23T09:34:08;25.70;99.90
11242;DHT22;5678;52.370;9.006;2022-07-23T09:36:37;26.00;99.90
11242;DHT22;5678;52.370;9.006;2022-07-23T09:39:07;25.70;99.90
11242;DHT22;5678;52.370;9.006;2022-07-23T09:41:40;25.10;99.90
11242;DHT22;5678;52.370;9.006;2022-07-23T09:44:10;25.10;99.90
11242;DHT22;5678;52.370;9.006;2022-07-23T09:46:39;25.20;99.90
11242;DHT22;5678;52.370;9.006;2022-07-23T09:49:16;25.50;99.90
11242;DHT22;5678;52.370;9.006;2022-07-23T09:51:50;25.60;99.90
11242;DHT22;5678;52.370;9.006;2022-07-23T09:54:29;25.40;99.90
11242;DHT22;5678;52.370;9.006;2022-07-23T09:57:02;25.00;99.90
11242;DHT22;5678;52.370;9.006;2022-07-23T09:59:31;25.00;99.90
11242;DHT22;5678;52.370;9.006;2022-07-23T10:02:00;25.40;99.90
11242;DHT22;5678;52.370;9.006;2022-07-23T10:04:29;25.80;99.90
11242;DHT22;5678;52.370;9.006;2022-07-23T10:06:59;26.40;99.90
11242;DHT22;5678;52.370;9.006;2022-07-23T10:09:30;26.60;99.90
11242;DHT22;5678;52.370;9.006;2022-07-23T10:12:00;26.80;99.90
11242;DHT22;5678;52.370;9.006;2022-07-23T10:14:33;27.00;99.90
11242;DHT22;5678;52.370;9.006;2022-07-23T10:17:02;27.30;99.90
11242;DHT22;5678;52.370;9.006;2022-07-23T10:19:30;27.40;99.90
11242;DHT22;5678;52.370;9.006;2022-07-23T10:22:01;27.20;98.80
11242;DHT22;5678;52.370;9.006;2022-07-23T10:24:46;27.20;99.90
11242;DHT22;5678;52.370;9.006;2022-07-23T10:30:20;27.70;99.90
11242;DHT22;5678;52.370;9.006;2022-07-23T10:32:56;28.00;98.50
11242;DHT22;5678;52.370;9.006;2022-07-23T10:35:33;28.00;95.70
11242;DHT22;5678;52.370;9.006;2022-07-23T10:38:11;27.70;92.70
11242;DHT22;5678;52.370;9.006;2022-07-23T10:40:55;27.20;98.30
11242;DHT22;5678;52.370;9.006;2022-07-23T10:43:24;26.50;99.90
11242;DHT22;5678;52.370;9.006;2022-07-23T10:45:52;26.20;99.90
11242;DHT22;5678;52.370;9.006;2022-07-23T10:48:22;26.00;99.90
11242;DHT22;5678;52.370;9.006;2022-07-23T10:51:07;25.80;99.90
11242;DHT22;5678;52.370;9.006;2022-07-23T10:53:54;25.60;99.90
11242;DHT22;5678;52.370;9.006;2022-07-23T10:57:05;25.90;99.90
11242;DHT22;5678;52.370;9.006;2022-07-23T11:02:41;26.80;99.90
11242;DHT22;5678;52.370;9.006;2022-07-23T11:05:10;26.80;99.90
11242;DHT22;5678;52.370;9.006;2022-07-23T11:08:10;26.40;99.70
11242;DHT22;5678;52.370;9.006;2022-07-23T11:10:43;26.10;99.90
11242;DHT22;5678;52.370;9.006;2022-07-23T11:13:45;26.10;99.90
11242;DHT22;5678;52.370;9.006;2022-07-23T11:16:24;26.50;99.90
11242;DHT22;5678;52.370;9.006;2022-07-23T11:19:03;26.60;99.90
11242;DHT22;5678;52.370;9.006;2022-07-23T11:21:47;26.60;99.90
11242;DHT22;5678;52.370;9.006;2022-07-23T11:24:21;26.20;97.60
11242;DHT22;5678;52.370;9.006;2022-07-23T11:27:02;25.80;99.90
11242;DHT22;5678;52.370;9.006;2022-07-23T11:29:47;25.30;99.90
11242;DHT22;5678;52.370;9.006;2022-07-23T11:32:32;25.40;99.90
11242;DHT22;5678;52.370;9.006;2022-07-23T11:35:02;25.40;99.90
11242;DHT22;5678;52.370;9.006;2022-07-23T11:37:36;25.70;99.90
11242;DHT22;5678;52.370;9.006;2022-07-23T11:40:08;26.30;99.90
11242;DHT22;5678;52.370;9.006;2022-07-23T11:42:37;26.60;99.90
11242;DHT22;5678;52.370;9.006;2022-07-23T11:45:09;26.70;99.90
11242;DHT22;5678;52.370;9.006;2022-07-23T11:47:37;26.40;98.30
11242;DHT22;5678;52.370;9.006;2022-07-23T11:50:06;26.00;98.20
11242;DHT22;5678;52.370;9.006;2022-07-23T11:52:34;25.50;98.30
11242;DHT22;5678;52.370;9.006;2022-07-23T11:55:05;25.30;99.90
11242;DHT22;5678;52.370;9.006;2022-07-23T11:57:34;25.70;99.90
11242;DHT22;5678;52.370;9.006;2022-07-23T12:00:07;26.30;99.90
11242;DHT22;5678;52.370;9.006;2022-07-23T12:02:38;26.60;99.90
11242;DHT22;5678;52.370;9.006;2022-07-23T12:05:07;26.50;91.90
11242;DHT22;5678;52.370;9.006;2022-07-23T12:07:37;26.30;95.30
11242;DHT22;5678;52.370;9.006;2022-07-23T12:10:14;26.30;99.90
11242;DHT22;5678;52.370;9.006;2022-07-23T12:12:44;26.30;96.60
11242;DHT22;5678;52.370;9.006;2022-07-23T12:15:15;25.80;92.50
11242;DHT22;5678;52.370;9.006;2022-07-23T12:17:45;25.60;99.90
11242;DHT22;5678;52.370;9.006;2022-07-23T12:20:19;25.60;99.90
11242;DHT22;5678;52.370;9.006;2022-07-23T12:22:49;26.10;99.90
11242;DHT22;5678;52.370;9.006;2022-07-23T12:25:18;26.60;99.90
11242;DHT22;5678;52.370;9.006;2022-07-23T12:27:58;27.10;99.90
11242;DHT22;5678;52.370;9.006;2022-07-23T12:30:30;27.50;91.00
11242;DHT22;5678;52.370;9.006;2022-07-23T12:33:01;27.50;83.40
11242;DHT22;5678;52.370;9.006;2022-07-23T12:35:33;27.80;96.50
11242;DHT22;5678;52.370;9.006;2022-07-23T12:38:03;28.10;66.90
11242;DHT22;5678;52.370;9.006;2022-07-23T12:40:33;28.10;58.90
11242;DHT22;5678;52.370;9.006;2022-07-23T12:43:03;28.10;51.10
11242;DHT22;5678;52.370;9.006;2022-07-23T12:45:45;28.00;46.60
11242;DHT22;5678;52.370;9.006;2022-07-23T12:48:22;27.60;43.60
11242;DHT22;5678;52.370;9.006;2022-07-23T12:50:58;27.40;52.10
11242;DHT22;5678;52.370;9.006;2022-07-23T12:53:29;27.50;51.90
11242;DHT22;5678;52.370;9.006;2022-07-23T12:55:59;27.70;54.80
11242;DHT22;5678;52.370;9.006;2022-07-23T12:58:46;27.70;53.50
11242;DHT22;5678;52.370;9.006;2022-07-23T13:01:28;27.70;50.20
11242;DHT22;5678;52.370;9.006;2022-07-23T13:04:02;27.80;48.20
11242;DHT22;5678;52.370;9.006;2022-07-23T13:06:41;27.70;38.50
11242;DHT22;5678;52.370;9.006;2022-07-23T13:09:11;27.70;51.60
11242;DHT22;5678;52.370;9.006;2022-07-23T13:11:41;27.60;40.30
11242;DHT22;5678;52.370;9.006;2022-07-23T13:14:10;27.40;39.60
11242;DHT22;5678;52.370;9.006;2022-07-23T13:16:41;27.50;40.70
11242;DHT22;5678;52.370;9.006;2022-07-23T13:19:09;27.30;37.70
11242;DHT22;5678;52.370;9.006;2022-07-23T13:21:39;27.20;39.50
11242;DHT22;5678;52.370;9.006;2022-07-23T13:24:09;27.20;51.60
11242;DHT22;5678;52.370;9.006;2022-07-23T13:26:39;27.40;51.20
11242;DHT22;5678;52.370;9.006;2022-07-23T13:29:07;27.40;48.30
11242;DHT22;5678;52.370;9.006;2022-07-23T13:31:37;27.60;57.40
11242;DHT22;5678;52.370;9.006;2022-07-23T13:34:07;27.70;41.00
11242;DHT22;5678;52.370;9.006;2022-07-23T13:36:36;27.50;47.00
11242;DHT22;5678;52.370;9.006;2022-07-23T13:39:05;27.30;43.70
11242;DHT22;5678;52.370;9.006;2022-07-23T13:41:35;27.50;48.30
11242;DHT22;5678;52.370;9.006;2022-07-23T13:44:04;27.20;42.90
11242;DHT22;5678;52.370;9.006;2022-07-23T13:46:33;27.00;47.80
11242;DHT22;5678;52.370;9.006;2022-07-23T13:49:01;26.90;53.60
11242;DHT22;5678;52.370;9.006;2022-07-23T13:51:33;27.00;71.20
11242;DHT22;5678;52.370;9.006;2022-07-23T13:54:03;27.10;46.50
11242;DHT22;5678;52.370;9.006;2022-07-23T13:56:35;27.00;54.00
11242;DHT22;5678;52.370;9.006;2022-07-23T13:59:03;27.10;50.80
11242;DHT22;5678;52.370;9.006;2022-07-23T14:01:32;27.10;46.00
11242;DHT22;5678;52.370;9.006;2022-07-23T14:04:21;27.10;49.50
11242;DHT22;5678;52.370;9.006;2022-07-23T14:06:50;27.20;48.50
11242;DHT22;5678;52.370;9.006;2022-07-23T14:09:20;27.10;46.30
11242;DHT22;5678;52.370;9.006;2022-07-23T14:11:51;27.20;49.60
11242;DHT22;5678;52.370;9.006;2022-07-23T14:14:19;27.30;49.90
11242;DHT22;5678;52.370;9.006;2022-07-23T14:16:47;27.40;42.90
11242;DHT22;5678;52.370;9.006;2022-07-23T14:19:16;27.20;41.60
11242;DHT22;5678;52.370;9.006;2022-07-23T14:21:45;27.00;41.30
11242;DHT22;5678;52.370;9.006;2022-07-23T14:24:17;26.90;48.90
11242;DHT22;5678;52.370;9.006;2022-07-23T14:26:47;27.00;52.10
11242;DHT22;5678;52.370;9.006;2022-07-23T14:29:15;27.00;44.70
11242;DHT22;5678;52.370;9.006;2022-07-23T14:31:45;26.90;47.60
11242;DHT22;5678;52.370;9.006;2022-07-23T14:34:13;26.90;50.80
11242;DHT22;5678;52.370;9.006;2022-07-23T14:36:41;26.80;44.40
11242;DHT22;5678;52.370;9.006;2022-07-23T14:39:09;26.60;51.10
11242;DHT22;5678;52.370;9.006;2022-07-23T14:41:39;26.70;67.70
11242;DHT22;5678;52.370;9.006;2022-07-23T14:44:07;26.80;58.80
11242;DHT22;5678;52.370;9.006;2022-07-23T14:46:36;26.90;59.30
11242;DHT22;5678;52.370;9.006;2022-07-23T14:49:04;27.10;62.70
11242;DHT22;5678;52.370;9.006;2022-07-23T14:51:33;27.00;52.80
11242;DHT22;5678;52.370;9.006;2022-07-23T14:54:01;27.00;55.10
11242;DHT22;5678;52.370;9.006;2022-07-23T14:56:29;26.90;59.50
11242;DHT22;5678;52.370;9.006;2022-07-23T14:58:59;26.80;60.40
11242;DHT22;5678;52.370;9.006;2022-07-23T15:01:27;26.80;53.20
11242;DHT22;5678;52.370;9.006;2022-07-23T15:03:55;26.70;61.50
11242;DHT22;5678;52.370;9.006;2022-07-23T15:06:43;26.70;56.40
11242;DHT22;5678;52.370;9.006;2022-07-23T15:09:11;26.60;61.60
11242;DHT22;5678;52.370;9.006;2022-07-23T15:11:40;26.20;53.40
11242;DHT22;5678;52.370;9.006;2022-07-23T15:14:11;26.20;77.50
11242;DHT22;5678;52.370;9.006;2022-07-23T15:16:51;26.10;62.40
11242;DHT22;5678;52.370;9.006;2022-07-23T15:19:19;26.00;72.90
11242;DHT22;5678;52.370;9.006;2022-07-23T15:21:47;26.00;67.60
11242;DHT22;5678;52.370;9.006;2022-07-23T15:24:16;25.80;68.40
11242;DHT22;5678;52.370;9.006;2022-07-23T15:26:44;25.80;87.60
11242;DHT22;5678;52.370;9.006;2022-07-23T15:29:13;25.80;71.90
11242;DHT22;5678;52.370;9.006;2022-07-23T15:31:41;25.60;75.20
11242;DHT22;5678;52.370;9.006;2022-07-23T15:34:13;25.60;85.90
11242;DHT22;5678;52.370;9.006;2022-07-23T15:36:41;25.70;90.90
11242;DHT22;5678;52.370;9.006;2022-07-23T15:39:09;25.90;99.90
11242;DHT22;5678;52.370;9.006;2022-07-23T15:41:37;26.10;94.20
11242;DHT22;5678;52.370;9.006;2022-07-23T15:44:09;26.20;92.30
11242;DHT22;5678;52.370;9.006;2022-07-23T15:46:56;26.20;85.80
11242;DHT22;5678;52.370;9.006;2022-07-23T15:49:25;26.00;77.00
11242;DHT22;5678;52.370;9.006;2022-07-23T15:51:54;25.80;83.20
11242;DHT22;5678;52.370;9.006;2022-07-23T15:54:23;25.70;95.40
11242;DHT22;5678;52.370;9.006;2022-07-23T15:56:52;25.70;97.30
11242;DHT22;5678;52.370;9.006;2022-07-23T15:59:21;25.80;93.60
11242;DHT22;5678;52.370;9.006;2022-07-23T16:01:57;25.70;88.30
11242;DHT22;5678;52.370;9.006;2022-07-23T16:04:25;25.60;93.20
11242;DHT22;5678;52.370;9.006;2022-07-23T16:06:54;25.60;94.80
11242;DHT22;5678;52.370;9.006;2022-07-23T16:09:22;25.60;97.30
11242;DHT22;5678;52.370;9.006;2022-07-23T16:11:50;25.40;94.60